Terminal Aerodrome Forecast
Issued by NWS Corpus Christi, TX

Current Version | Previous Version | Text Only | Print | Product List | Glossary Off
Versions: 1 2 3 4 5 6 7 8 9 10 11 12 13 14 15 16

997
FTUS44 KCRP 271728
TAFVCT
TAF
KVCT 271728Z 2718/2818 03007KT P6SM BKN020
     FM272000 02006KT P6SM BKN035
     FM280200 35004KT P6SM SCT040 BKN250=

USA.gov is the U.S. government's official web portal to all federal, state and local government web resources and services.